sensor_id;sensor_type;location;lat;lon;timestamp;P1;durP1;ratioP1;P2;durP2;ratioP2
58372;SDS011;44177;43.356;27.672;2023-02-05T00:01:51;2.22;;;1.98;;
58372;SDS011;44177;43.356;27.672;2023-02-05T00:04:17;2.60;;;1.92;;
58372;SDS011;44177;43.356;27.672;2023-02-05T00:06:43;2.13;;;1.92;;
58372;SDS011;44177;43.356;27.672;2023-02-05T00:09:09;2.92;;;1.83;;
58372;SDS011;44177;43.356;27.672;2023-02-05T00:11:34;2.55;;;2.15;;
58372;SDS011;44177;43.356;27.672;2023-02-05T00:14:00;2.80;;;2.00;;
58372;SDS011;44177;43.356;27.672;2023-02-05T00:16:25;3.13;;;2.50;;
58372;SDS011;44177;43.356;27.672;2023-02-05T00:18:51;2.80;;;2.25;;
58372;SDS011;44177;43.356;27.672;2023-02-05T00:21:17;2.58;;;2.35;;
58372;SDS011;44177;43.356;27.672;2023-02-05T00:23:44;3.38;;;2.35;;
58372;SDS011;44177;43.356;27.672;2023-02-05T00:26:10;2.33;;;2.13;;
58372;SDS011;44177;43.356;27.672;2023-02-05T00:28:37;2.60;;;2.13;;
58372;SDS011;44177;43.356;27.672;2023-02-05T00:31:06;2.47;;;2.10;;
58372;SDS011;44177;43.356;27.672;2023-02-05T00:33:38;2.72;;;2.53;;
58372;SDS011;44177;43.356;27.672;2023-02-05T00:36:04;3.08;;;2.38;;
58372;SDS011;44177;43.356;27.672;2023-02-05T00:38:30;2.92;;;2.40;;
58372;SDS011;44177;43.356;27.672;2023-02-05T00:40:56;2.80;;;2.50;;
58372;SDS011;44177;43.356;27.672;2023-02-05T00:43:21;3.15;;;2.30;;
58372;SDS011;44177;43.356;27.672;2023-02-05T00:45:47;3.25;;;2.50;;
58372;SDS011;44177;43.356;27.672;2023-02-05T00:48:12;2.85;;;2.38;;
58372;SDS011;44177;43.356;27.672;2023-02-05T00:50:37;3.30;;;2.60;;
58372;SDS011;44177;43.356;27.672;2023-02-05T00:53:03;2.92;;;2.65;;
58372;SDS011;44177;43.356;27.672;2023-02-05T00:55:28;3.75;;;2.72;;
58372;SDS011;44177;43.356;27.672;2023-02-05T00:57:54;3.47;;;2.40;;
58372;SDS011;44177;43.356;27.672;2023-02-05T01:00:20;3.65;;;2.80;;
58372;SDS011;44177;43.356;27.672;2023-02-05T01:02:46;3.50;;;2.60;;
58372;SDS011;44177;43.356;27.672;2023-02-05T01:05:11;3.45;;;2.67;;
58372;SDS011;44177;43.356;27.672;2023-02-05T01:07:37;4.18;;;2.60;;
58372;SDS011;44177;43.356;27.672;2023-02-05T01:10:03;3.88;;;2.83;;
58372;SDS011;44177;43.356;27.672;2023-02-05T01:12:30;2.97;;;2.40;;
58372;SDS011;44177;43.356;27.672;2023-02-05T01:14:57;4.13;;;2.95;;
58372;SDS011;44177;43.356;27.672;2023-02-05T01:17:24;3.85;;;2.80;;
58372;SDS011;44177;43.356;27.672;2023-02-05T01:19:50;4.68;;;3.08;;
58372;SDS011;44177;43.356;27.672;2023-02-05T01:22:15;7.00;;;3.13;;
58372;SDS011;44177;43.356;27.672;2023-02-05T01:24:41;3.80;;;2.92;;
58372;SDS011;44177;43.356;27.672;2023-02-05T01:27:06;4.70;;;3.50;;
58372;SDS011;44177;43.356;27.672;2023-02-05T01:29:32;4.00;;;3.15;;
58372;SDS011;44177;43.356;27.672;2023-02-05T01:31:57;4.57;;;3.25;;
58372;SDS011;44177;43.356;27.672;2023-02-05T01:34:23;4.45;;;3.30;;
58372;SDS011;44177;43.356;27.672;2023-02-05T01:36:48;4.38;;;3.30;;
58372;SDS011;44177;43.356;27.672;2023-02-05T01:39:14;4.38;;;3.55;;
58372;SDS011;44177;43.356;27.672;2023-02-05T01:41:39;4.40;;;3.50;;
58372;SDS011;44177;43.356;27.672;2023-02-05T01:46:40;5.78;;;3.35;;
58372;SDS011;44177;43.356;27.672;2023-02-05T01:49:08;5.10;;;3.67;;
58372;SDS011;44177;43.356;27.672;2023-02-05T01:51:39;5.90;;;3.53;;
58372;SDS011;44177;43.356;27.672;2023-02-05T01:54:05;5.45;;;3.53;;
58372;SDS011;44177;43.356;27.672;2023-02-05T01:59:15;5.50;;;4.10;;
58372;SDS011;44177;43.356;27.672;2023-02-05T02:01:44;4.00;;;3.10;;
58372;SDS011;44177;43.356;27.672;2023-02-05T02:04:10;5.82;;;4.50;;
58372;SDS011;44177;43.356;27.672;2023-02-05T02:06:39;4.93;;;3.60;;
58372;SDS011;44177;43.356;27.672;2023-02-05T02:09:05;5.30;;;3.97;;
58372;SDS011;44177;43.356;27.672;2023-02-05T02:11:32;5.15;;;3.72;;
58372;SDS011;44177;43.356;27.672;2023-02-05T02:14:03;6.18;;;4.20;;
58372;SDS011;44177;43.356;27.672;2023-02-05T02:16:32;6.68;;;3.83;;
58372;SDS011;44177;43.356;27.672;2023-02-05T02:18:59;4.65;;;3.83;;
58372;SDS011;44177;43.356;27.672;2023-02-05T02:29:46;6.32;;;4.32;;
58372;SDS011;44177;43.356;27.672;2023-02-05T02:32:30;5.80;;;4.00;;
58372;SDS011;44177;43.356;27.672;2023-02-05T02:35:50;5.43;;;3.75;;
58372;SDS011;44177;43.356;27.672;2023-02-05T02:38:09;5.32;;;4.10;;
58372;SDS011;44177;43.356;27.672;2023-02-05T02:40:45;6.53;;;4.13;;
58372;SDS011;44177;43.356;27.672;2023-02-05T02:43:18;6.05;;;4.10;;
58372;SDS011;44177;43.356;27.672;2023-02-05T02:45:47;5.70;;;3.92;;
58372;SDS011;44177;43.356;27.672;2023-02-05T02:48:17;5.10;;;3.95;;
58372;SDS011;44177;43.356;27.672;2023-02-05T02:50:46;4.50;;;3.42;;
58372;SDS011;44177;43.356;27.672;2023-02-05T02:53:18;5.47;;;4.03;;
58372;SDS011;44177;43.356;27.672;2023-02-05T02:55:48;4.95;;;3.70;;
58372;SDS011;44177;43.356;27.672;2023-02-05T02:58:19;6.35;;;4.30;;
58372;SDS011;44177;43.356;27.672;2023-02-05T03:00:48;5.38;;;3.97;;
58372;SDS011;44177;43.356;27.672;2023-02-05T03:03:17;4.80;;;3.58;;
58372;SDS011;44177;43.356;27.672;2023-02-05T03:05:45;6.00;;;4.35;;
58372;SDS011;44177;43.356;27.672;2023-02-05T03:08:15;5.30;;;3.88;;
58372;SDS011;44177;43.356;27.672;2023-02-05T03:10:54;6.32;;;4.10;;
58372;SDS011;44177;43.356;27.672;2023-02-05T03:13:25;5.57;;;3.65;;
58372;SDS011;44177;43.356;27.672;2023-02-05T03:15:51;6.97;;;4.03;;
58372;SDS011;44177;43.356;27.672;2023-02-05T03:18:16;5.05;;;3.78;;
58372;SDS011;44177;43.356;27.672;2023-02-05T03:20:48;6.57;;;3.83;;
58372;SDS011;44177;43.356;27.672;2023-02-05T03:23:16;4.40;;;3.70;;
58372;SDS011;44177;43.356;27.672;2023-02-05T03:25:42;5.60;;;4.03;;
58372;SDS011;44177;43.356;27.672;2023-02-05T03:28:07;5.22;;;3.88;;
58372;SDS011;44177;43.356;27.672;2023-02-05T03:30:37;5.40;;;3.53;;
58372;SDS011;44177;43.356;27.672;2023-02-05T03:41:57;5.13;;;3.80;;
58372;SDS011;44177;43.356;27.672;2023-02-05T03:56:05;6.13;;;4.22;;
58372;SDS011;44177;43.356;27.672;2023-02-05T03:58:37;6.18;;;3.50;;
58372;SDS011;44177;43.356;27.672;2023-02-05T04:01:06;4.50;;;3.53;;
58372;SDS011;44177;43.356;27.672;2023-02-05T04:03:34;4.18;;;3.42;;
58372;SDS011;44177;43.356;27.672;2023-02-05T04:05:59;4.72;;;3.42;;
58372;SDS011;44177;43.356;27.672;2023-02-05T04:08:25;5.75;;;3.78;;
58372;SDS011;44177;43.356;27.672;2023-02-05T04:10:50;4.82;;;3.50;;
58372;SDS011;44177;43.356;27.672;2023-02-05T04:13:16;4.80;;;3.58;;
58372;SDS011;44177;43.356;27.672;2023-02-05T04:15:42;4.60;;;3.50;;
58372;SDS011;44177;43.356;27.672;2023-02-05T04:18:07;4.95;;;3.58;;
58372;SDS011;44177;43.356;27.672;2023-02-05T04:20:33;4.70;;;3.50;;
58372;SDS011;44177;43.356;27.672;2023-02-05T04:22:58;4.70;;;3.70;;
58372;SDS011;44177;43.356;27.672;2023-02-05T04:25:24;5.35;;;3.88;;
58372;SDS011;44177;43.356;27.672;2023-02-05T04:27:49;4.88;;;3.35;;
58372;SDS011;44177;43.356;27.672;2023-02-05T04:30:15;4.53;;;3.35;;
58372;SDS011;44177;43.356;27.672;2023-02-05T04:32:40;4.90;;;3.60;;
58372;SDS011;44177;43.356;27.672;2023-02-05T04:35:06;6.30;;;3.63;;
58372;SDS011;44177;43.356;27.672;2023-02-05T04:37:32;5.03;;;3.60;;
58372;SDS011;44177;43.356;27.672;2023-02-05T04:39:57;5.25;;;3.60;;
58372;SDS011;44177;43.356;27.672;2023-02-05T04:42:22;4.95;;;3.40;;
58372;SDS011;44177;43.356;27.672;2023-02-05T04:44:48;4.13;;;3.38;;
58372;SDS011;44177;43.356;27.672;2023-02-05T04:47:13;4.60;;;3.45;;
58372;SDS011;44177;43.356;27.672;2023-02-05T04:49:39;4.30;;;3.17;;
58372;SDS011;44177;43.356;27.672;2023-02-05T04:52:07;4.93;;;3.50;;
58372;SDS011;44177;43.356;27.672;2023-02-05T04:54:33;4.32;;;3.00;;
58372;SDS011;44177;43.356;27.672;2023-02-05T04:56:59;4.05;;;3.08;;
58372;SDS011;44177;43.356;27.672;2023-02-05T04:59:25;5.05;;;3.28;;
58372;SDS011;44177;43.356;27.672;2023-02-05T05:01:50;4.57;;;3.35;;
58372;SDS011;44177;43.356;27.672;2023-02-05T05:04:16;4.93;;;3.40;;
58372;SDS011;44177;43.356;27.672;2023-02-05T05:06:41;4.90;;;3.58;;
58372;SDS011;44177;43.356;27.672;2023-02-05T05:09:07;4.80;;;3.33;;
58372;SDS011;44177;43.356;27.672;2023-02-05T05:11:32;5.07;;;3.08;;
58372;SDS011;44177;43.356;27.672;2023-02-05T05:13:58;3.85;;;3.30;;
58372;SDS011;44177;43.356;27.672;2023-02-05T05:16:23;5.22;;;3.20;;
58372;SDS011;44177;43.356;27.672;2023-02-05T05:18:50;3.72;;;3.20;;
58372;SDS011;44177;43.356;27.672;2023-02-05T05:21:16;3.80;;;3.10;;
58372;SDS011;44177;43.356;27.672;2023-02-05T05:23:41;6.22;;;3.47;;
58372;SDS011;44177;43.356;27.672;2023-02-05T05:26:07;4.57;;;3.50;;
58372;SDS011;44177;43.356;27.672;2023-02-05T05:28:35;3.97;;;3.22;;
58372;SDS011;44177;43.356;27.672;2023-02-05T05:31:07;5.03;;;3.33;;
58372;SDS011;44177;43.356;27.672;2023-02-05T05:33:34;4.20;;;3.03;;
58372;SDS011;44177;43.356;27.672;2023-02-05T05:36:00;4.05;;;3.40;;
58372;SDS011;44177;43.356;27.672;2023-02-05T05:38:26;4.32;;;3.13;;
58372;SDS011;44177;43.356;27.672;2023-02-05T05:40:51;4.40;;;3.33;;
58372;SDS011;44177;43.356;27.672;2023-02-05T05:43:35;4.88;;;3.50;;
58372;SDS011;44177;43.356;27.672;2023-02-05T05:46:20;3.60;;;2.95;;
58372;SDS011;44177;43.356;27.672;2023-02-05T05:48:51;4.28;;;3.63;;
58372;SDS011;44177;43.356;27.672;2023-02-05T05:51:22;4.30;;;3.40;;
58372;SDS011;44177;43.356;27.672;2023-02-05T05:53:48;4.30;;;3.30;;
58372;SDS011;44177;43.356;27.672;2023-02-05T05:56:14;3.72;;;2.67;;
58372;SDS011;44177;43.356;27.672;2023-02-05T05:58:40;4.05;;;3.03;;
58372;SDS011;44177;43.356;27.672;2023-02-05T06:01:06;4.80;;;3.63;;
58372;SDS011;44177;43.356;27.672;2023-02-05T06:03:32;3.90;;;2.92;;
58372;SDS011;44177;43.356;27.672;2023-02-05T06:06:01;3.58;;;2.92;;
58372;SDS011;44177;43.356;27.672;2023-02-05T06:08:28;3.58;;;2.85;;
58372;SDS011;44177;43.356;27.672;2023-02-05T06:10:54;3.85;;;2.53;;
58372;SDS011;44177;43.356;27.672;2023-02-05T06:13:20;3.53;;;2.75;;
58372;SDS011;44177;43.356;27.672;2023-02-05T06:15:46;4.30;;;3.03;;
58372;SDS011;44177;43.356;27.672;2023-02-05T06:18:13;4.40;;;2.70;;
58372;SDS011;44177;43.356;27.672;2023-02-05T06:20:39;4.00;;;3.03;;
58372;SDS011;44177;43.356;27.672;2023-02-05T06:23:05;4.00;;;2.92;;
58372;SDS011;44177;43.356;27.672;2023-02-05T06:25:30;4.85;;;3.10;;
58372;SDS011;44177;43.356;27.672;2023-02-05T06:27:56;3.95;;;2.90;;
58372;SDS011;44177;43.356;27.672;2023-02-05T06:30:21;4.00;;;2.65;;
58372;SDS011;44177;43.356;27.672;2023-02-05T06:32:47;4.45;;;3.03;;
58372;SDS011;44177;43.356;27.672;2023-02-05T06:35:13;3.42;;;2.60;;
58372;SDS011;44177;43.356;27.672;2023-02-05T06:37:39;3.55;;;2.67;;
58372;SDS011;44177;43.356;27.672;2023-02-05T06:40:04;3.55;;;2.55;;
58372;SDS011;44177;43.356;27.672;2023-02-05T06:42:30;4.85;;;3.08;;
58372;SDS011;44177;43.356;27.672;2023-02-05T06:44:55;3.45;;;2.63;;
58372;SDS011;44177;43.356;27.672;2023-02-05T06:47:21;4.25;;;2.80;;
58372;SDS011;44177;43.356;27.672;2023-02-05T06:49:46;3.10;;;2.38;;
58372;SDS011;44177;43.356;27.672;2023-02-05T06:52:12;3.67;;;2.90;;
58372;SDS011;44177;43.356;27.672;2023-02-05T06:54:37;3.65;;;2.50;;
58372;SDS011;44177;43.356;27.672;2023-02-05T06:57:03;3.72;;;2.63;;
58372;SDS011;44177;43.356;27.672;2023-02-05T06:59:28;3.20;;;2.40;;
58372;SDS011;44177;43.356;27.672;2023-02-05T07:01:54;3.75;;;2.63;;
58372;SDS011;44177;43.356;27.672;2023-02-05T07:04:20;3.08;;;2.50;;
58372;SDS011;44177;43.356;27.672;2023-02-05T07:06:45;3.92;;;2.58;;
58372;SDS011;44177;43.356;27.672;2023-02-05T07:09:11;4.18;;;2.50;;
58372;SDS011;44177;43.356;27.672;2023-02-05T07:11:36;3.03;;;2.60;;
58372;SDS011;44177;43.356;27.672;2023-02-05T07:14:02;3.97;;;2.50;;
58372;SDS011;44177;43.356;27.672;2023-02-05T07:16:28;3.63;;;2.50;;
58372;SDS011;44177;43.356;27.672;2023-02-05T07:18:54;3.85;;;2.50;;
58372;SDS011;44177;43.356;27.672;2023-02-05T07:21:21;3.33;;;2.17;;
58372;SDS011;44177;43.356;27.672;2023-02-05T07:23:47;3.47;;;2.50;;
58372;SDS011;44177;43.356;27.672;2023-02-05T07:26:13;3.45;;;2.53;;
58372;SDS011;44177;43.356;27.672;2023-02-05T07:28:40;3.67;;;2.70;;
58372;SDS011;44177;43.356;27.672;2023-02-05T07:31:10;3.97;;;2.50;;
58372;SDS011;44177;43.356;27.672;2023-02-05T07:33:41;4.40;;;2.50;;
58372;SDS011;44177;43.356;27.672;2023-02-05T07:36:08;2.55;;;2.08;;
58372;SDS011;44177;43.356;27.672;2023-02-05T07:38:36;3.50;;;2.58;;
58372;SDS011;44177;43.356;27.672;2023-02-05T07:41:02;3.38;;;2.13;;
58372;SDS011;44177;43.356;27.672;2023-02-05T07:43:29;3.50;;;2.50;;
58372;SDS011;44177;43.356;27.672;2023-02-05T07:45:57;3.75;;;2.20;;
58372;SDS011;44177;43.356;27.672;2023-02-05T07:48:24;2.67;;;2.10;;
58372;SDS011;44177;43.356;27.672;2023-02-05T07:50:50;3.90;;;2.20;;
58372;SDS011;44177;43.356;27.672;2023-02-05T07:53:16;3.47;;;2.25;;
58372;SDS011;44177;43.356;27.672;2023-02-05T07:55:41;2.55;;;2.30;;
58372;SDS011;44177;43.356;27.672;2023-02-05T07:58:07;3.85;;;2.47;;
58372;SDS011;44177;43.356;27.672;2023-02-05T08:00:32;3.88;;;2.15;;
58372;SDS011;44177;43.356;27.672;2023-02-05T08:02:58;3.00;;;2.13;;
58372;SDS011;44177;43.356;27.672;2023-02-05T08:05:23;3.85;;;2.15;;
58372;SDS011;44177;43.356;27.672;2023-02-05T08:07:48;4.20;;;2.40;;
58372;SDS011;44177;43.356;27.672;2023-02-05T08:10:14;2.53;;;2.10;;
58372;SDS011;44177;43.356;27.672;2023-02-05T08:12:39;3.20;;;2.25;;
58372;SDS011;44177;43.356;27.672;2023-02-05T08:15:05;3.60;;;2.20;;
58372;SDS011;44177;43.356;27.672;2023-02-05T08:17:31;3.53;;;2.10;;
58372;SDS011;44177;43.356;27.672;2023-02-05T08:19:56;3.15;;;1.90;;
58372;SDS011;44177;43.356;27.672;2023-02-05T08:22:24;4.05;;;2.20;;
58372;SDS011;44177;43.356;27.672;2023-02-05T08:24:49;3.08;;;2.10;;
58372;SDS011;44177;43.356;27.672;2023-02-05T08:27:15;2.35;;;1.77;;
58372;SDS011;44177;43.356;27.672;2023-02-05T08:29:40;2.40;;;2.00;;
58372;SDS011;44177;43.356;27.672;2023-02-05T08:32:05;3.70;;;2.10;;
58372;SDS011;44177;43.356;27.672;2023-02-05T08:34:31;3.03;;;2.17;;
58372;SDS011;44177;43.356;27.672;2023-02-05T08:36:58;2.53;;;1.95;;
58372;SDS011;44177;43.356;27.672;2023-02-05T08:39:24;2.40;;;1.80;;
58372;SDS011;44177;43.356;27.672;2023-02-05T08:41:50;3.00;;;1.73;;
58372;SDS011;44177;43.356;27.672;2023-02-05T08:44:15;2.85;;;1.77;;
58372;SDS011;44177;43.356;27.672;2023-02-05T08:46:41;3.15;;;2.00;;
58372;SDS011;44177;43.356;27.672;2023-02-05T08:49:06;3.92;;;2.97;;
58372;SDS011;44177;43.356;27.672;2023-02-05T08:51:32;2.60;;;2.00;;
58372;SDS011;44177;43.356;27.672;2023-02-05T08:53:59;2.83;;;1.80;;
58372;SDS011;44177;43.356;27.672;2023-02-05T08:56:25;2.58;;;1.90;;
58372;SDS011;44177;43.356;27.672;2023-02-05T08:58:50;2.90;;;1.92;;
58372;SDS011;44177;43.356;27.672;2023-02-05T09:01:16;3.22;;;1.90;;
58372;SDS011;44177;43.356;27.672;2023-02-05T09:03:42;2.22;;;1.80;;
58372;SDS011;44177;43.356;27.672;2023-02-05T09:06:09;2.30;;;1.67;;
58372;SDS011;44177;43.356;27.672;2023-02-05T09:08:36;2.30;;;1.65;;
58372;SDS011;44177;43.356;27.672;2023-02-05T09:11:02;4.20;;;2.05;;
58372;SDS011;44177;43.356;27.672;2023-02-05T09:13:27;2.03;;;1.60;;
58372;SDS011;44177;43.356;27.672;2023-02-05T09:15:53;2.42;;;1.85;;
58372;SDS011;44177;43.356;27.672;2023-02-05T09:18:18;2.92;;;1.73;;
58372;SDS011;44177;43.356;27.672;2023-02-05T09:20:45;2.55;;;1.88;;
58372;SDS011;44177;43.356;27.672;2023-02-05T09:23:12;3.28;;;1.90;;
58372;SDS011;44177;43.356;27.672;2023-02-05T09:25:39;2.45;;;1.60;;
58372;SDS011;44177;43.356;27.672;2023-02-05T09:28:06;2.63;;;2.20;;
58372;SDS011;44177;43.356;27.672;2023-02-05T09:30:37;1.63;;;1.52;;
58372;SDS011;44177;43.356;27.672;2023-02-05T09:33:03;2.65;;;1.90;;
58372;SDS011;44177;43.356;27.672;2023-02-05T09:35:32;2.90;;;2.10;;
58372;SDS011;44177;43.356;27.672;2023-02-05T09:37:59;3.28;;;1.90;;
58372;SDS011;44177;43.356;27.672;2023-02-05T09:40:28;2.65;;;1.85;;
58372;SDS011;44177;43.356;27.672;2023-02-05T09:46:04;2.17;;;1.60;;
58372;SDS011;44177;43.356;27.672;2023-02-05T09:54:25;2.17;;;1.80;;
58372;SDS011;44177;43.356;27.672;2023-02-05T09:56:58;2.03;;;1.83;;
58372;SDS011;44177;43.356;27.672;2023-02-05T09:59:29;3.95;;;1.80;;
58372;SDS011;44177;43.356;27.672;2023-02-05T10:02:15;2.38;;;1.60;;
58372;SDS011;44177;43.356;27.672;2023-02-05T10:04:49;3.22;;;1.65;;
58372;SDS011;44177;43.356;27.672;2023-02-05T10:10:23;3.03;;;1.88;;
58372;SDS011;44177;43.356;27.672;2023-02-05T10:26:22;2.83;;;1.67;;
58372;SDS011;44177;43.356;27.672;2023-02-05T10:29:06;3.03;;;2.10;;
58372;SDS011;44177;43.356;27.672;2023-02-05T10:36:40;2.67;;;1.73;;
58372;SDS011;44177;43.356;27.672;2023-02-05T10:39:12;2.17;;;1.75;;
58372;SDS011;44177;43.356;27.672;2023-02-05T10:47:14;2.55;;;2.08;;
58372;SDS011;44177;43.356;27.672;2023-02-05T10:52:27;3.05;;;2.30;;
58372;SDS011;44177;43.356;27.672;2023-02-05T10:54:52;2.83;;;2.08;;
58372;SDS011;44177;43.356;27.672;2023-02-05T10:57:19;2.58;;;2.00;;
58372;SDS011;44177;43.356;27.672;2023-02-05T10:59:51;2.58;;;1.90;;
58372;SDS011;44177;43.356;27.672;2023-02-05T11:02:20;2.83;;;2.00;;
58372;SDS011;44177;43.356;27.672;2023-02-05T11:04:48;3.22;;;1.90;;
58372;SDS011;44177;43.356;27.672;2023-02-05T11:07:33;3.03;;;2.08;;
58372;SDS011;44177;43.356;27.672;2023-02-05T11:10:18;3.53;;;2.10;;
58372;SDS011;44177;43.356;27.672;2023-02-05T11:12:49;2.15;;;1.80;;
58372;SDS011;44177;43.356;27.672;2023-02-05T11:15:38;2.60;;;2.08;;
58372;SDS011;44177;43.356;27.672;2023-02-05T11:18:21;3.03;;;1.90;;
58372;SDS011;44177;43.356;27.672;2023-02-05T11:21:02;2.88;;;2.10;;
58372;SDS011;44177;43.356;27.672;2023-02-05T11:23:30;2.28;;;1.95;;
58372;SDS011;44177;43.356;27.672;2023-02-05T11:26:00;3.63;;;2.05;;
58372;SDS011;44177;43.356;27.672;2023-02-05T11:28:33;3.22;;;1.95;;
58372;SDS011;44177;43.356;27.672;2023-02-05T11:33:49;2.33;;;1.75;;
58372;SDS011;44177;43.356;27.672;2023-02-05T11:36:16;3.85;;;2.10;;
58372;SDS011;44177;43.356;27.672;2023-02-05T11:44:33;2.28;;;1.98;;
58372;SDS011;44177;43.356;27.672;2023-02-05T11:46:59;3.80;;;1.90;;
58372;SDS011;44177;43.356;27.672;2023-02-05T11:49:31;3.67;;;2.08;;
58372;SDS011;44177;43.356;27.672;2023-02-05T11:51:59;3.33;;;1.80;;
58372;SDS011;44177;43.356;27.672;2023-02-05T11:54:33;3.10;;;2.10;;
58372;SDS011;44177;43.356;27.672;2023-02-05T11:57:45;2.67;;;2.00;;
58372;SDS011;44177;43.356;27.672;2023-02-05T12:15:35;2.50;;;2.00;;
58372;SDS011;44177;43.356;27.672;2023-02-05T12:30:13;2.80;;;2.20;;
58372;SDS011;44177;43.356;27.672;2023-02-05T12:32:55;3.38;;;2.10;;
58372;SDS011;44177;43.356;27.672;2023-02-05T12:43:38;2.83;;;2.00;;
58372;SDS011;44177;43.356;27.672;2023-02-05T12:49:31;3.38;;;2.03;;
58372;SDS011;44177;43.356;27.672;2023-02-05T12:55:45;3.05;;;2.15;;
58372;SDS011;44177;43.356;27.672;2023-02-05T12:57:57;2.63;;;1.80;;
58372;SDS011;44177;43.356;27.672;2023-02-05T13:01:01;3.83;;;2.40;;
58372;SDS011;44177;43.356;27.672;2023-02-05T13:11:25;3.47;;;2.35;;
58372;SDS011;44177;43.356;27.672;2023-02-05T13:14:29;2.97;;;1.98;;
58372;SDS011;44177;43.356;27.672;2023-02-05T13:17:03;2.78;;;1.98;;
58372;SDS011;44177;43.356;27.672;2023-02-05T13:19:37;4.35;;;2.45;;
58372;SDS011;44177;43.356;27.672;2023-02-05T13:33:38;2.93;;;2.20;;
58372;SDS011;44177;43.356;27.672;2023-02-05T14:00:35;3.53;;;2.20;;
58372;SDS011;44177;43.356;27.672;2023-02-05T14:03:05;3.00;;;2.00;;
58372;SDS011;44177;43.356;27.672;2023-02-05T14:05:34;3.45;;;2.20;;
58372;SDS011;44177;43.356;27.672;2023-02-05T14:08:03;3.20;;;2.15;;
58372;SDS011;44177;43.356;27.672;2023-02-05T14:10:31;3.30;;;2.42;;
58372;SDS011;44177;43.356;27.672;2023-02-05T14:23:55;4.15;;;2.25;;
58372;SDS011;44177;43.356;27.672;2023-02-05T14:26:42;3.40;;;2.13;;
58372;SDS011;44177;43.356;27.672;2023-02-05T14:35:02;3.40;;;2.13;;
58372;SDS011;44177;43.356;27.672;2023-02-05T14:37:38;3.30;;;2.42;;
58372;SDS011;44177;43.356;27.672;2023-02-05T14:40:23;3.17;;;2.00;;
58372;SDS011;44177;43.356;27.672;2023-02-05T14:43:16;3.42;;;1.73;;
58372;SDS011;44177;43.356;27.672;2023-02-05T14:45:51;3.70;;;2.08;;
58372;SDS011;44177;43.356;27.672;2023-02-05T14:48:27;3.50;;;2.15;;
58372;SDS011;44177;43.356;27.672;2023-02-05T14:51:03;2.63;;;1.88;;
58372;SDS011;44177;43.356;27.672;2023-02-05T14:53:40;2.38;;;1.95;;
58372;SDS011;44177;43.356;27.672;2023-02-05T14:56:38;3.47;;;1.80;;
58372;SDS011;44177;43.356;27.672;2023-02-05T15:01:53;2.85;;;2.03;;
58372;SDS011;44177;43.356;27.672;2023-02-05T15:07:19;3.30;;;1.80;;
58372;SDS011;44177;43.356;27.672;2023-02-05T15:09:59;3.00;;;2.10;;
58372;SDS011;44177;43.356;27.672;2023-02-05T15:14:56;2.92;;;1.95;;
58372;SDS011;44177;43.356;27.672;2023-02-05T15:20:04;2.65;;;1.85;;
58372;SDS011;44177;43.356;27.672;2023-02-05T15:22:49;2.28;;;1.90;;
58372;SDS011;44177;43.356;27.672;2023-02-05T15:25:29;2.67;;;1.83;;
58372;SDS011;44177;43.356;27.672;2023-02-05T15:28:00;3.00;;;2.10;;
58372;SDS011;44177;43.356;27.672;2023-02-05T15:30:29;3.65;;;2.35;;
58372;SDS011;44177;43.356;27.672;2023-02-05T15:33:02;2.95;;;2.00;;
58372;SDS011;44177;43.356;27.672;2023-02-05T15:35:33;2.67;;;1.80;;
58372;SDS011;44177;43.356;27.672;2023-02-05T15:38:03;3.20;;;2.00;;
58372;SDS011;44177;43.356;27.672;2023-02-05T15:40:37;4.00;;;2.28;;
58372;SDS011;44177;43.356;27.672;2023-02-05T15:43:10;3.17;;;2.28;;
58372;SDS011;44177;43.356;27.672;2023-02-05T15:45:57;2.83;;;2.25;;
58372;SDS011;44177;43.356;27.672;2023-02-05T15:48:25;2.70;;;2.15;;
58372;SDS011;44177;43.356;27.672;2023-02-05T15:50:55;3.80;;;2.00;;
58372;SDS011;44177;43.356;27.672;2023-02-05T15:56:03;2.60;;;1.75;;
58372;SDS011;44177;43.356;27.672;2023-02-05T15:58:48;3.78;;;2.28;;
58372;SDS011;44177;43.356;27.672;2023-02-05T16:01:26;3.10;;;2.10;;
58372;SDS011;44177;43.356;27.672;2023-02-05T16:03:52;4.35;;;2.17;;
58372;SDS011;44177;43.356;27.672;2023-02-05T16:06:22;3.08;;;2.15;;
58372;SDS011;44177;43.356;27.672;2023-02-05T16:08:49;3.20;;;2.25;;
58372;SDS011;44177;43.356;27.672;2023-02-05T16:11:29;2.85;;;2.33;;
58372;SDS011;44177;43.356;27.672;2023-02-05T16:16:29;2.80;;;1.95;;
58372;SDS011;44177;43.356;27.672;2023-02-05T16:18:56;2.10;;;1.90;;
58372;SDS011;44177;43.356;27.672;2023-02-05T16:21:26;2.72;;;1.95;;
58372;SDS011;44177;43.356;27.672;2023-02-05T16:23:57;2.90;;;1.80;;
58372;SDS011;44177;43.356;27.672;2023-02-05T16:26:34;1.80;;;1.70;;
58372;SDS011;44177;43.356;27.672;2023-02-05T16:29:04;2.93;;;1.93;;
58372;SDS011;44177;43.356;27.672;2023-02-05T16:31:32;2.95;;;1.98;;
58372;SDS011;44177;43.356;27.672;2023-02-05T16:34:01;3.17;;;1.90;;
58372;SDS011;44177;43.356;27.672;2023-02-05T16:36:36;2.35;;;1.80;;
58372;SDS011;44177;43.356;27.672;2023-02-05T16:39:04;2.42;;;1.63;;
58372;SDS011;44177;43.356;27.672;2023-02-05T16:41:59;2.95;;;2.03;;
58372;SDS011;44177;43.356;27.672;2023-02-05T16:44:36;2.88;;;1.88;;
58372;SDS011;44177;43.356;27.672;2023-02-05T16:47:22;2.67;;;1.90;;
58372;SDS011;44177;43.356;27.672;2023-02-05T16:49:47;3.50;;;1.85;;
58372;SDS011;44177;43.356;27.672;2023-02-05T16:52:32;2.53;;;2.00;;
58372;SDS011;44177;43.356;27.672;2023-02-05T16:57:49;2.05;;;1.75;;
58372;SDS011;44177;43.356;27.672;2023-02-05T17:00:23;2.88;;;1.75;;
58372;SDS011;44177;43.356;27.672;2023-02-05T17:02:52;2.65;;;1.92;;
58372;SDS011;44177;43.356;27.672;2023-02-05T17:05:25;3.38;;;1.80;;
58372;SDS011;44177;43.356;27.672;2023-02-05T17:08:06;3.60;;;2.10;;
58372;SDS011;44177;43.356;27.672;2023-02-05T17:10:53;2.60;;;1.80;;
58372;SDS011;44177;43.356;27.672;2023-02-05T17:13:39;3.55;;;1.90;;
58372;SDS011;44177;43.356;27.672;2023-02-05T17:16:26;2.50;;;1.92;;
58372;SDS011;44177;43.356;27.672;2023-02-05T17:18:52;3.42;;;2.00;;
58372;SDS011;44177;43.356;27.672;2023-02-05T17:21:29;2.95;;;1.98;;
58372;SDS011;44177;43.356;27.672;2023-02-05T17:23:58;2.78;;;1.98;;
58372;SDS011;44177;43.356;27.672;2023-02-05T17:26:27;3.75;;;2.20;;
58372;SDS011;44177;43.356;27.672;2023-02-05T17:28:57;3.50;;;1.90;;
58372;SDS011;44177;43.356;27.672;2023-02-05T17:31:28;2.60;;;1.90;;
58372;SDS011;44177;43.356;27.672;2023-02-05T17:33:56;3.90;;;1.88;;
58372;SDS011;44177;43.356;27.672;2023-02-05T17:36:23;3.15;;;1.95;;
58372;SDS011;44177;43.356;27.672;2023-02-05T17:38:49;2.50;;;2.05;;
58372;SDS011;44177;43.356;27.672;2023-02-05T17:41:25;2.78;;;1.95;;
58372;SDS011;44177;43.356;27.672;2023-02-05T17:44:11;3.08;;;2.35;;
58372;SDS011;44177;43.356;27.672;2023-02-05T17:46:39;2.83;;;2.25;;
58372;SDS011;44177;43.356;27.672;2023-02-05T17:49:06;2.83;;;2.00;;
58372;SDS011;44177;43.356;27.672;2023-02-05T17:51:32;3.72;;;2.00;;
58372;SDS011;44177;43.356;27.672;2023-02-05T17:53:57;3.40;;;2.28;;
58372;SDS011;44177;43.356;27.672;2023-02-05T17:56:23;3.42;;;2.20;;
58372;SDS011;44177;43.356;27.672;2023-02-05T17:58:49;2.60;;;1.90;;
58372;SDS011;44177;43.356;27.672;2023-02-05T18:01:16;3.63;;;2.38;;
58372;SDS011;44177;43.356;27.672;2023-02-05T18:03:42;2.60;;;1.90;;
58372;SDS011;44177;43.356;27.672;2023-02-05T18:06:09;3.83;;;1.90;;
58372;SDS011;44177;43.356;27.672;2023-02-05T18:08:37;2.78;;;2.13;;
58372;SDS011;44177;43.356;27.672;2023-02-05T18:11:04;2.95;;;2.10;;